FKYS/NSI METAR and TAF weather

Enter ICAO airport designator
Station Type Date Time Source
FKYS METAR 2022/06/26 08:00 UTC NOAA

FKYS 260800Z 24004KT 210V280 8000 BKN007 23/22 Q1018 BECMG BKN013


Station Type Date Time Source
FKYS Decoded METAR 2022/06/26 08:00 UTC NOAA

Yaounde, Cameroon (FKYS) 03-50N 011-31E 760M
Jun 26, 2022 - 04:00 AM EDT / 2022.06.26 0800 UTC
Wind: from the WSW (240 degrees) at 5 MPH (4 KT) (direction variable):0
Visibility: 4 mile(s):0
Sky conditions: mostly cloudy
Temperature: 73 F (23 C)
Dew Point: 71 F (22 C)
Relative Humidity: 94%
Pressure (altimeter): 30.06 in. Hg (1018 hPa)
ob: FKYS 260800Z 24004KT 210V280 8000 BKN007 23/22 Q1018 BECMG BKN013
cycle: 8

Station Type Date Time Source
FKYS TAF 2022/06/26 06:33 UTC NOAA

TAF FKYS 260500Z 2606/2706 26005KT 8000 BKN006
BECMG 2607/2609 BKN016 PROB30 2613/2618 4000 TSRA BKN016 FEW023CB
BECMG 2620/2622 BKN006 FEW016CB
TEMPO 2622/2702 3000 TSRA

Example: see airport list